createdAt,value
2022-09-15T00:00:09.122Z,0
2022-09-15T00:01:10.543Z,0
2022-09-15T00:02:11.698Z,0
2022-09-15T00:03:12.628Z,0
2022-09-15T00:04:13.553Z,0
2022-09-15T00:05:14.605Z,0
2022-09-15T00:06:15.555Z,0
2022-09-15T00:07:16.562Z,0
2022-09-15T00:08:17.555Z,0
2022-09-15T00:09:18.565Z,0
2022-09-15T00:10:19.613Z,0
2022-09-15T00:11:20.576Z,0
2022-09-15T00:12:21.591Z,0
2022-09-15T00:13:22.604Z,0
2022-09-15T00:14:24.089Z,0
2022-09-15T00:15:25.639Z,0
2022-09-15T00:16:26.644Z,0
2022-09-15T00:17:27.602Z,0.1
2022-09-15T00:18:28.581Z,0
2022-09-15T00:19:29.583Z,0
2022-09-15T00:20:30.610Z,0
2022-09-15T00:21:31.640Z,0
2022-09-15T00:22:32.579Z,0
2022-09-15T00:23:33.660Z,0
2022-09-15T00:24:34.601Z,0
2022-09-15T00:25:35.590Z,0
2022-09-15T00:26:36.603Z,0
2022-09-15T00:27:37.594Z,0
2022-09-15T00:28:38.601Z,0
2022-09-15T00:29:39.621Z,0
2022-09-15T00:30:40.786Z,0
2022-09-15T00:31:41.637Z,0
2022-09-15T00:32:42.627Z,0
2022-09-15T00:33:44.059Z,0
2022-09-15T00:34:45.612Z,0
2022-09-15T00:35:46.614Z,0
2022-09-15T00:36:47.677Z,0
2022-09-15T00:37:48.610Z,0
2022-09-15T00:38:49.606Z,0.35
2022-09-15T00:39:50.681Z,0.45
2022-09-15T00:40:51.626Z,0.18
2022-09-15T00:41:52.645Z,0.5
2022-09-15T00:42:53.844Z,0
2022-09-15T00:43:55.630Z,0
2022-09-15T00:44:56.626Z,0.16
2022-09-15T00:45:57.701Z,0
2022-09-15T00:47:18.076Z,0
2022-09-15T00:47:59.617Z,0.1
2022-09-15T00:49:00.633Z,0.36
2022-09-15T00:50:01.679Z,0.26
2022-09-15T00:51:02.643Z,0.17
2022-09-15T00:52:03.870Z,0.19
2022-09-15T00:53:06.717Z,0.63
2022-09-15T00:54:07.626Z,0.37
2022-09-15T00:55:08.640Z,0.69
2022-09-15T00:56:09.642Z,0.36
2022-09-15T00:57:10.922Z,0.16
2022-09-15T00:58:12.640Z,0.4
2022-09-15T01:00:41.670Z,0.15
2022-09-15T01:01:43.987Z,0.51
2022-09-15T01:02:45.762Z,0.87
2022-09-15T01:03:46.656Z,0.24
2022-09-15T01:04:47.649Z,0.41
2022-09-15T01:05:48.670Z,0.41
2022-09-15T01:06:49.653Z,0.46
2022-09-15T01:07:50.703Z,0.29
2022-09-15T01:08:51.826Z,0.4
2022-09-15T01:09:52.654Z,0.48
2022-09-15T01:10:54.044Z,0.25
2022-09-15T01:11:55.695Z,0.15
2022-09-15T01:12:56.680Z,0
2022-09-15T01:13:57.707Z,0
2022-09-15T01:14:58.687Z,0.79
2022-09-15T01:15:59.740Z,0.27
2022-09-15T01:17:07.195Z,0.12
2022-09-15T01:18:08.658Z,0
2022-09-15T01:19:09.714Z,0.38
2022-09-15T01:20:10.702Z,0.2
2022-09-15T01:21:11.662Z,0.14
2022-09-15T01:22:12.697Z,0.41
2022-09-15T01:23:14.090Z,0.36
2022-09-15T01:24:15.724Z,0.11
2022-09-15T01:25:16.692Z,0
2022-09-15T01:26:17.828Z,0.35
2022-09-15T01:27:40.855Z,0.21
2022-09-15T01:28:20.683Z,0
2022-09-15T01:29:21.894Z,0
2022-09-15T01:30:22.737Z,0
2022-09-15T01:31:23.828Z,0.14
2022-09-15T01:32:24.720Z,0.41
2022-09-15T01:33:25.697Z,0.22
2022-09-15T01:34:26.753Z,0.18
2022-09-15T01:35:27.688Z,0
2022-09-15T01:36:28.709Z,0
2022-09-15T01:37:29.694Z,0
2022-09-15T01:38:30.712Z,0
2022-09-15T01:39:31.725Z,0
2022-09-15T01:40:32.815Z,0
2022-09-15T01:41:33.769Z,0.24
2022-09-15T01:42:34.716Z,0.29
2022-09-15T01:43:35.714Z,0.18
2022-09-15T01:44:36.777Z,0.27
2022-09-15T01:45:37.805Z,0.19
2022-09-15T01:46:38.740Z,0.22
2022-09-15T01:47:39.749Z,0
2022-09-15T01:48:40.729Z,0
2022-09-15T01:49:41.761Z,0
2022-09-15T01:50:42.726Z,0
2022-09-15T01:51:43.728Z,0
2022-09-15T01:52:44.791Z,0
2022-09-15T01:53:45.742Z,0
2022-09-15T01:54:46.766Z,0.29
2022-09-15T01:55:47.728Z,0.06
2022-09-15T01:56:48.744Z,0.15
2022-09-15T01:57:49.737Z,0.22
2022-09-15T01:58:50.737Z,0.28
2022-09-15T01:59:51.802Z,0.2
2022-09-15T02:00:52.827Z,0.23
2022-09-15T02:01:54.023Z,0.1
2022-09-15T02:02:55.768Z,0.1
2022-09-15T02:03:56.744Z,0.14
2022-09-15T02:04:57.764Z,0.15
2022-09-15T02:05:58.738Z,0.1
2022-09-15T02:06:59.742Z,0.3
2022-09-15T02:08:00.744Z,0.18
2022-09-15T02:09:01.770Z,0.18
2022-09-15T02:10:02.931Z,0.14
2022-09-15T02:11:04.775Z,0
2022-09-15T02:12:05.791Z,0.19
2022-09-15T02:13:06.788Z,0.25
2022-09-15T02:14:07.774Z,0.28
2022-09-15T02:15:08.810Z,0.42
2022-09-15T02:16:10.261Z,0.52
2022-09-15T02:17:11.794Z,0.17
2022-09-15T02:18:12.808Z,0.26
2022-09-15T02:19:13.781Z,0.37
2022-09-15T02:20:14.762Z,0.21
2022-09-15T02:21:15.784Z,0.27
2022-09-15T02:22:16.775Z,0.47
2022-09-15T02:23:17.805Z,0.47
2022-09-15T02:24:18.773Z,0.15
2022-09-15T02:25:19.812Z,0.44
2022-09-15T02:26:20.777Z,0.25
2022-09-15T02:27:21.777Z,0.18
2022-09-15T02:28:22.838Z,0.22
2022-09-15T02:29:23.838Z,0.21
2022-09-15T02:30:24.775Z,0.21
2022-09-15T02:31:25.889Z,0.47
2022-09-15T02:32:26.810Z,0.19
2022-09-15T02:33:27.862Z,0.27
2022-09-15T02:34:28.823Z,0.11
2022-09-15T02:35:30.001Z,0.25
2022-09-15T02:36:31.844Z,0.3
2022-09-15T02:37:32.805Z,0.41
2022-09-15T02:38:34.088Z,0.41
2022-09-15T02:39:35.822Z,0.71
2022-09-15T02:40:36.842Z,0.35
2022-09-15T02:41:37.798Z,0.22
2022-09-15T02:42:38.812Z,0.21
2022-09-15T02:43:40.916Z,0
2022-09-15T02:44:42.857Z,0.22
2022-09-15T02:45:43.929Z,0
2022-09-15T02:46:45.925Z,0.39
2022-09-15T02:47:47.857Z,0.38
2022-09-15T02:48:48.823Z,0.26
2022-09-15T02:49:50.018Z,0.12
2022-09-15T02:50:51.822Z,0.17
2022-09-15T02:51:52.817Z,0
2022-09-15T02:52:53.819Z,0.47
2022-09-15T02:53:55.349Z,0.69
2022-09-15T02:54:56.861Z,0.23
2022-09-15T02:55:57.894Z,0.77
2022-09-15T02:56:58.825Z,0.43
2022-09-15T02:58:00.240Z,0.56
2022-09-15T02:59:01.869Z,0.18
2022-09-15T03:00:02.951Z,0.77
2022-09-15T03:01:06.122Z,0.5
2022-09-15T03:02:08.023Z,0.83
2022-09-15T03:03:08.866Z,0.75
2022-09-15T03:04:10.380Z,1
2022-09-15T03:05:11.857Z,1.17
2022-09-15T03:06:12.914Z,0.82
2022-09-15T03:07:13.843Z,0.4
2022-09-15T03:08:14.841Z,0.75
2022-09-15T03:09:15.853Z,0.7
2022-09-15T03:10:16.849Z,0.77
2022-09-15T03:11:17.902Z,0.77
2022-09-15T03:12:18.928Z,0.7
2022-09-15T03:13:20.271Z,0.84
2022-09-15T03:14:21.849Z,0.95
2022-09-15T03:15:22.894Z,0.4
2022-09-15T03:16:23.935Z,0.44
2022-09-15T03:17:24.950Z,0.61
2022-09-15T03:18:25.952Z,0.61
2022-09-15T03:19:26.873Z,0.6
2022-09-15T03:20:27.914Z,0.61
2022-09-15T03:21:28.861Z,1.01
2022-09-15T03:22:30.038Z,0.6
2022-09-15T03:23:31.950Z,0.53
2022-09-15T03:24:32.872Z,0.83
2022-09-15T03:25:33.880Z,0.24
2022-09-15T03:26:34.926Z,0.68
2022-09-15T03:27:35.928Z,0.72
2022-09-15T03:28:37.682Z,0.37
2022-09-15T03:29:38.897Z,0.49
2022-09-15T03:30:39.950Z,0.44
2022-09-15T03:31:40.978Z,0.89
2022-09-15T03:32:41.913Z,0.55
2022-09-15T03:33:42.933Z,0.69
2022-09-15T03:34:43.902Z,0.52
2022-09-15T03:35:44.987Z,0.55
2022-09-15T03:36:45.888Z,0.53
2022-09-15T03:37:46.948Z,0.46
2022-09-15T03:38:47.916Z,0.44
2022-09-15T03:39:48.943Z,0.29
2022-09-15T03:40:49.971Z,0.3
2022-09-15T03:41:50.911Z,0.53
2022-09-15T03:42:51.920Z,0.68
2022-09-15T03:43:52.963Z,0.44
2022-09-15T03:44:53.927Z,0.43
2022-09-15T03:45:55.205Z,0.47
2022-09-15T03:46:57.988Z,0.21
2022-09-15T03:47:58.996Z,0.82
2022-09-15T03:48:59.995Z,0.32
2022-09-15T03:50:00.913Z,0.71
2022-09-15T03:51:01.972Z,0.89
2022-09-15T03:52:02.956Z,0.55
2022-09-15T03:53:03.948Z,0.85
2022-09-15T03:54:04.958Z,0.41
2022-09-15T03:55:05.914Z,0.6
2022-09-15T03:56:06.925Z,0.77
2022-09-15T03:57:07.984Z,0.41
2022-09-15T03:58:08.933Z,0.74
2022-09-15T03:59:09.969Z,0.88
2022-09-15T04:00:10.925Z,0.75
2022-09-15T04:01:12.221Z,0.96
2022-09-15T04:02:14.012Z,1.14
2022-09-15T04:03:14.981Z,1.04
2022-09-15T04:04:15.957Z,0.82
2022-09-15T04:05:16.930Z,0.6
2022-09-15T04:06:17.954Z,0.65
2022-09-15T04:07:19.019Z,0.73
2022-09-15T04:08:19.984Z,0.82
2022-09-15T04:09:20.983Z,0.58
2022-09-15T04:10:22.015Z,0.35
2022-09-15T04:11:22.954Z,0.12
2022-09-15T04:12:24.020Z,0.41
2022-09-15T04:13:28.537Z,0
2022-09-15T04:14:25.940Z,0.44
2022-09-15T04:15:28.106Z,0.3
2022-09-15T04:16:30.337Z,0.31
2022-09-15T04:17:32.002Z,0.36
2022-09-15T04:18:33.014Z,0
2022-09-15T04:19:34.002Z,0.34
2022-09-15T04:20:35.008Z,0.17
2022-09-15T04:21:35.966Z,0
2022-09-15T04:22:37.091Z,0
2022-09-15T04:23:38.031Z,0.17
2022-09-15T04:24:38.967Z,0.38
2022-09-15T04:25:39.983Z,0.59
2022-09-15T04:26:40.971Z,0.6
2022-09-15T04:27:42.215Z,0.63
2022-09-15T04:28:44.042Z,0.76
2022-09-15T04:29:44.980Z,0.54
2022-09-15T04:30:45.983Z,0.61
2022-09-15T04:31:47.122Z,0.68
2022-09-15T04:32:48.002Z,0.48
2022-09-15T04:33:49.009Z,0.34
2022-09-15T04:34:50.053Z,0.59
2022-09-15T04:35:51.026Z,0.59
2022-09-15T04:36:52.000Z,0.24
2022-09-15T04:37:52.999Z,0.11
2022-09-15T04:38:54.046Z,0.57
2022-09-15T04:39:55.202Z,0.71
2022-09-15T04:40:57.028Z,0.51
2022-09-15T04:41:57.981Z,0.4
2022-09-15T04:42:59.046Z,0.33
2022-09-15T04:44:00.062Z,0.28
2022-09-15T04:45:01.016Z,0.53
2022-09-15T04:46:02.061Z,0.4
2022-09-15T04:47:03.058Z,0.31
2022-09-15T04:48:04.037Z,0.99
2022-09-15T04:49:05.030Z,0.57
2022-09-15T04:50:06.073Z,0.73
2022-09-15T04:51:07.966Z,0.51
2022-09-15T04:52:09.951Z,0.61
2022-09-15T04:53:10.037Z,0.96
2022-09-15T04:54:11.015Z,0.59
2022-09-15T04:55:12.007Z,0.52
2022-09-15T04:56:13.065Z,0.64
2022-09-15T04:57:14.049Z,0.49
2022-09-15T04:58:15.088Z,0.75
2022-09-15T04:59:16.004Z,0.51
2022-09-15T05:00:17.034Z,0.24
2022-09-15T05:01:18.128Z,0.7
2022-09-15T05:02:19.210Z,0.6
2022-09-15T05:03:20.020Z,0.62
2022-09-15T05:04:21.027Z,0.6
2022-09-15T05:05:22.071Z,0.54
2022-09-15T05:06:23.018Z,0.95
2022-09-15T05:07:24.053Z,0.63
2022-09-15T05:08:26.276Z,0.37
2022-09-15T05:09:28.028Z,0.52
2022-09-15T05:10:29.046Z,0.79
2022-09-15T05:11:30.074Z,0.68
2022-09-15T05:12:31.044Z,0.45
2022-09-15T05:13:32.103Z,0.39
2022-09-15T05:14:33.075Z,0.5
2022-09-15T05:15:34.038Z,0.67
2022-09-15T05:16:36.263Z,0.91
2022-09-15T05:17:38.049Z,0.63
2022-09-15T05:18:39.354Z,0.75
2022-09-15T05:19:41.085Z,0.62
2022-09-15T05:20:42.069Z,0.92
2022-09-15T05:21:43.055Z,0.46
2022-09-15T05:22:44.058Z,0.1
2022-09-15T05:23:45.144Z,0.55
2022-09-15T05:24:46.077Z,0.37
2022-09-15T05:25:47.055Z,0.51
2022-09-15T05:26:48.085Z,0.43
2022-09-15T05:27:49.082Z,0.41
2022-09-15T05:28:50.134Z,0.5
2022-09-15T05:30:00.402Z,0.44
2022-09-15T05:30:53.201Z,0.62
2022-09-15T05:31:55.189Z,0.65
2022-09-15T05:32:56.062Z,0.73
2022-09-15T05:33:57.362Z,0.85
2022-09-15T05:34:59.075Z,0.67
2022-09-15T05:36:00.148Z,0.53
2022-09-15T05:37:01.073Z,0.62
2022-09-15T05:38:02.344Z,0.27
2022-09-15T05:39:04.083Z,0.6
2022-09-15T05:40:08.343Z,0.66
2022-09-15T05:41:06.120Z,0.47
2022-09-15T05:42:07.163Z,0
2022-09-15T05:43:08.114Z,0.82
2022-09-15T05:44:09.281Z,0.77
2022-09-15T05:45:11.165Z,0.59
2022-09-15T05:46:12.188Z,0.23
2022-09-15T05:47:13.088Z,0.05
2022-09-15T05:48:14.111Z,0.4
2022-09-15T05:49:16.299Z,0.11
2022-09-15T05:50:18.090Z,0.35
2022-09-15T05:51:19.115Z,0.21
2022-09-15T05:52:20.086Z,0.66
2022-09-15T05:53:21.088Z,0.34
2022-09-15T05:54:23.225Z,0.55
2022-09-15T05:55:25.114Z,0.44
2022-09-15T05:56:26.809Z,0.46
2022-09-15T05:57:28.118Z,0.34
2022-09-15T05:58:29.358Z,0.52
2022-09-15T05:59:31.377Z,0.78
2022-09-15T06:00:33.123Z,1.02
2022-09-15T06:01:34.174Z,0.76
2022-09-15T06:02:35.194Z,0.51
2022-09-15T06:03:36.137Z,0.81
2022-09-15T06:04:38.274Z,0.88
2022-09-15T06:05:40.153Z,0.89
2022-09-15T06:06:41.925Z,0.89
2022-09-15T06:07:43.140Z,0.58
2022-09-15T06:08:44.968Z,1.09
2022-09-15T06:09:46.150Z,0.8
2022-09-15T06:10:47.467Z,0.65
2022-09-15T06:11:49.130Z,1.56
2022-09-15T06:12:50.145Z,0.7
2022-09-15T06:13:51.960Z,1.12
2022-09-15T06:14:53.175Z,1.19
2022-09-15T06:15:54.297Z,0.81
2022-09-15T06:16:56.140Z,1.05
2022-09-15T06:17:58.213Z,0.81
2022-09-15T06:18:59.713Z,1.3
2022-09-15T06:20:01.159Z,1.72
2022-09-15T06:21:03.289Z,1.53
2022-09-15T06:22:05.202Z,1.29
2022-09-15T06:23:06.910Z,1.07
2022-09-15T06:24:08.242Z,0.88
2022-09-15T06:25:09.901Z,0.97
2022-09-15T06:26:11.842Z,1.27
2022-09-15T06:27:13.398Z,0.87
2022-09-15T06:28:15.173Z,1.19
2022-09-15T06:29:16.242Z,1.71
2022-09-15T06:30:17.426Z,1.52
2022-09-15T06:31:19.233Z,1.18
2022-09-15T06:32:21.246Z,1.23
2022-09-15T06:33:23.052Z,0.84
2022-09-15T06:34:27.055Z,0.58
2022-09-15T06:35:29.364Z,1.52
2022-09-15T06:36:31.206Z,0.92
2022-09-15T06:37:33.254Z,0.89
2022-09-15T06:38:34.418Z,0.91
2022-09-15T06:39:36.241Z,0.58
2022-09-15T06:40:37.438Z,0.56
2022-09-15T06:41:58.693Z,0.66
2022-09-15T06:42:40.429Z,0.66
2022-09-15T06:43:42.357Z,0.95
2022-09-15T06:44:43.233Z,0.87
2022-09-15T06:45:44.709Z,1.02
2022-09-15T06:46:46.895Z,1.41
2022-09-15T06:47:58.228Z,1.34
2022-09-15T06:48:50.230Z,1.16
2022-09-15T06:49:51.892Z,1.06
2022-09-15T06:50:53.217Z,0.95
2022-09-15T06:51:54.267Z,1.04
2022-09-15T06:52:55.983Z,1.13
2022-09-15T06:53:57.540Z,1.62
2022-09-15T06:54:59.267Z,0.81
2022-09-15T06:56:00.561Z,0.97
2022-09-15T06:57:03.082Z,0.32
2022-09-15T06:58:04.492Z,1.5
2022-09-15T06:59:06.223Z,1.77
2022-09-15T07:00:07.887Z,1.57
2022-09-15T07:01:09.770Z,0.84
2022-09-15T07:02:12.192Z,0.57
2022-09-15T07:03:13.677Z,0.79
2022-09-15T07:04:15.267Z,0.83
2022-09-15T07:05:16.979Z,0.56
2022-09-15T07:06:19.327Z,0.92
2022-09-15T07:07:21.213Z,1.11
2022-09-15T07:08:23.316Z,1.05
2022-09-15T07:09:24.379Z,0.88
2022-09-15T07:10:26.291Z,1.61
2022-09-15T07:11:27.936Z,1.4
2022-09-15T07:12:29.768Z,1.28
2022-09-15T07:13:31.939Z,1.08
2022-09-15T07:14:33.585Z,1.19
2022-09-15T07:15:35.527Z,0.8
2022-09-15T07:16:38.551Z,0.46
2022-09-15T07:17:39.942Z,1.07
2022-09-15T07:18:43.420Z,1
2022-09-15T07:19:43.230Z,0.96
2022-09-15T07:20:44.258Z,0.85
2022-09-15T07:21:45.288Z,0.64
2022-09-15T07:22:46.938Z,0.79
2022-09-15T07:23:48.644Z,0.97
2022-09-15T07:24:50.240Z,0.95
2022-09-15T07:25:51.925Z,1.42
2022-09-15T07:26:53.575Z,1.48
2022-09-15T07:27:55.264Z,1.44
2022-09-15T07:28:56.918Z,1
2022-09-15T07:29:58.472Z,1
2022-09-15T07:31:00.361Z,1.22
2022-09-15T07:32:01.999Z,1.06
2022-09-15T07:33:03.637Z,1.32
2022-09-15T07:34:05.292Z,0.86
2022-09-15T07:35:06.936Z,0.86
2022-09-15T07:36:08.287Z,0.56
2022-09-15T07:37:09.288Z,0.37
2022-09-15T07:38:11.330Z,0.77
2022-09-15T07:39:12.890Z,1.21
2022-09-15T07:40:14.518Z,1.06
2022-09-15T07:41:16.369Z,0.82
2022-09-15T07:42:18.343Z,0.89
2022-09-15T07:43:19.463Z,1.19
2022-09-15T07:44:21.405Z,1.01
2022-09-15T07:45:23.317Z,0.81
2022-09-15T07:46:24.526Z,1.01
2022-09-15T07:47:26.973Z,1.11
2022-09-15T07:48:29.555Z,0.8
2022-09-15T07:49:31.284Z,0.52
2022-09-15T07:50:32.322Z,0.86
2022-09-15T07:51:33.604Z,1.18
2022-09-15T07:52:35.321Z,1.35
2022-09-15T07:53:36.959Z,1.15
2022-09-15T07:54:38.350Z,1.5
2022-09-15T07:55:39.295Z,1.49
2022-09-15T07:56:40.617Z,0.83
2022-09-15T07:57:42.354Z,1.03
2022-09-15T07:58:43.577Z,0.7
2022-09-15T07:59:45.298Z,0.49
2022-09-15T08:00:47.003Z,0.67
2022-09-15T08:01:48.489Z,0.78
2022-09-15T08:02:50.319Z,1.01
2022-09-15T08:03:51.587Z,1.19
2022-09-15T08:04:52.360Z,0.89
2022-09-15T08:05:53.660Z,1.24
2022-09-15T08:06:55.613Z,1.14
2022-09-15T08:07:57.366Z,0.74
2022-09-15T08:09:00.595Z,0.91
2022-09-15T08:10:00.351Z,1.13
2022-09-15T08:11:01.344Z,0.83
2022-09-15T08:12:02.474Z,0.81
2022-09-15T08:13:04.348Z,1.11
2022-09-15T08:14:05.392Z,0.93
2022-09-15T08:15:07.011Z,1.07
2022-09-15T08:16:09.250Z,1.03
2022-09-15T08:17:11.611Z,0.82
2022-09-15T08:18:12.365Z,1.34
2022-09-15T08:19:13.664Z,1.38
2022-09-15T08:20:15.464Z,1.39
2022-09-15T08:21:17.344Z,1.38
2022-09-15T08:22:19.411Z,1.17
2022-09-15T08:23:21.471Z,1.8
2022-09-15T08:24:23.371Z,1.61
2022-09-15T08:25:24.445Z,1.15
2022-09-15T08:26:25.409Z,1.47
2022-09-15T08:27:26.390Z,1.54
2022-09-15T08:28:27.358Z,1.19
2022-09-15T08:29:28.418Z,1.44
2022-09-15T08:30:29.459Z,0.58
2022-09-15T08:31:30.429Z,1.19
2022-09-15T08:32:31.356Z,1.38
2022-09-15T08:33:32.398Z,0.71
2022-09-15T08:34:33.399Z,1.08
2022-09-15T08:35:34.399Z,1.16
2022-09-15T08:36:35.401Z,1.31
2022-09-15T08:37:36.945Z,1.43
2022-09-15T08:38:38.404Z,1.01
2022-09-15T08:39:39.421Z,1.48
2022-09-15T08:40:41.594Z,1.06
2022-09-15T08:41:42.521Z,0.76
2022-09-15T08:42:45.078Z,1.06
2022-09-15T08:43:45.894Z,1.47
2022-09-15T08:44:48.052Z,1.45
2022-09-15T08:45:49.415Z,1.06
2022-09-15T08:46:50.468Z,1.34
2022-09-15T08:47:51.655Z,0.97
2022-09-15T08:48:53.507Z,1.94
2022-09-15T08:49:54.467Z,1.07
2022-09-15T08:50:55.380Z,1.28
2022-09-15T08:51:57.035Z,1.62
2022-09-15T08:52:58.405Z,0.92
2022-09-15T08:53:59.487Z,0.77
2022-09-15T08:55:01.510Z,1.27
2022-09-15T08:56:06.224Z,1.88
2022-09-15T08:57:04.495Z,1.42
2022-09-15T08:58:05.444Z,1.26
2022-09-15T08:59:06.777Z,1.82
2022-09-15T09:00:08.466Z,1.36
2022-09-15T09:01:09.532Z,1.15
2022-09-15T09:02:10.493Z,1.28
2022-09-15T09:03:11.495Z,1.27
2022-09-15T09:04:15.432Z,0.55
2022-09-15T09:05:13.488Z,1.06
2022-09-15T09:06:14.423Z,1.47
2022-09-15T09:07:15.513Z,0.98
2022-09-15T09:08:17.009Z,0.96
2022-09-15T09:09:18.461Z,1.25
2022-09-15T09:10:19.658Z,1.23
2022-09-15T09:11:21.568Z,1.24
2022-09-15T09:12:22.527Z,1.65
2022-09-15T09:13:23.630Z,1.27
2022-09-15T09:14:25.453Z,0.92
2022-09-15T09:15:26.462Z,1.23
2022-09-15T09:16:27.432Z,1.1
2022-09-15T09:17:28.481Z,1.46
2022-09-15T09:18:29.763Z,1.12
2022-09-15T09:19:32.392Z,0.99
2022-09-15T09:20:32.476Z,0.92
2022-09-15T09:21:33.452Z,0.81
2022-09-15T09:22:34.468Z,1.28
2022-09-15T09:23:35.514Z,1.01
2022-09-15T09:24:36.452Z,1.25
2022-09-15T09:25:37.468Z,1.18
2022-09-15T09:26:38.857Z,1.05
2022-09-15T09:27:40.475Z,0.96
2022-09-15T09:28:41.498Z,1.37
2022-09-15T09:29:43.628Z,0.96
2022-09-15T09:30:45.587Z,1.37
2022-09-15T09:31:46.486Z,1.58
2022-09-15T09:32:47.490Z,0.82
2022-09-15T09:33:48.673Z,0.57
2022-09-15T09:34:49.501Z,0.42
2022-09-15T09:35:50.473Z,1.18
2022-09-15T09:36:51.538Z,1.28
2022-09-15T09:37:52.468Z,0.85
2022-09-15T09:38:53.527Z,0.54
2022-09-15T09:39:54.618Z,0.68
2022-09-15T09:40:58.638Z,0.75
2022-09-15T09:41:56.555Z,0.82
2022-09-15T09:42:57.483Z,1.45
2022-09-15T09:43:58.481Z,1.42
2022-09-15T09:44:59.501Z,1.16
2022-09-15T09:46:00.531Z,1.2
2022-09-15T09:47:01.558Z,1.09
2022-09-15T09:48:02.740Z,1.2
2022-09-15T09:49:04.523Z,1.64
2022-09-15T09:50:05.595Z,1.28
2022-09-15T09:51:07.488Z,0.58
2022-09-15T09:52:08.487Z,1.38
2022-09-15T09:53:09.598Z,1.33
2022-09-15T09:54:10.526Z,0.98
2022-09-15T09:55:11.561Z,1.45
2022-09-15T09:56:12.498Z,1.12
2022-09-15T09:57:13.533Z,1.01
2022-09-15T09:58:14.503Z,0.93
2022-09-15T09:59:15.537Z,1.06
2022-09-15T10:00:16.564Z,1.23
2022-09-15T10:01:17.580Z,1.28
2022-09-15T10:02:18.553Z,1.11
2022-09-15T10:03:19.538Z,1.06
2022-09-15T10:04:21.598Z,1.02
2022-09-15T10:05:22.529Z,1.5
2022-09-15T10:06:23.614Z,1.51
2022-09-15T10:07:24.569Z,1.42
2022-09-15T10:08:25.514Z,1.25
2022-09-15T10:09:29.970Z,1.85
2022-09-15T10:10:27.537Z,1
2022-09-15T10:11:28.547Z,1.22
2022-09-15T10:12:29.576Z,1.67
2022-09-15T10:13:30.520Z,1.58
2022-09-15T10:14:31.602Z,1.46
2022-09-15T10:15:32.572Z,0.95
2022-09-15T10:16:33.673Z,0.75
2022-09-15T10:17:34.543Z,0.71
2022-09-15T10:18:35.541Z,0.79
2022-09-15T10:19:36.569Z,2.06
2022-09-15T10:20:37.545Z,1.08
2022-09-15T10:21:38.601Z,1.15
2022-09-15T10:22:39.717Z,0.82
2022-09-15T10:23:41.614Z,1.39
2022-09-15T10:24:42.551Z,1.55
2022-09-15T10:25:58.401Z,1.23
2022-09-15T10:26:44.609Z,1.15
2022-09-15T10:28:52.595Z,1.35
2022-09-15T10:29:53.695Z,0.67
2022-09-15T10:30:55.563Z,0.63
2022-09-15T10:31:57.734Z,0.74
2022-09-15T10:32:59.648Z,1.4
2022-09-15T10:34:00.580Z,1.18
2022-09-15T10:35:01.608Z,1.04
2022-09-15T10:36:02.612Z,0.73
2022-09-15T10:37:03.638Z,1.31
2022-09-15T10:38:04.580Z,0.94
2022-09-15T10:39:05.834Z,1.07
2022-09-15T10:40:07.902Z,1.03
2022-09-15T10:41:09.589Z,1.06
2022-09-15T10:42:10.626Z,1.29
2022-09-15T10:43:11.618Z,1.33
2022-09-15T10:44:12.613Z,1.08
2022-09-15T10:45:13.683Z,0.65
2022-09-15T10:46:15.629Z,1.03
2022-09-15T10:47:16.591Z,0.74
2022-09-15T10:48:17.611Z,0.75
2022-09-15T10:49:18.662Z,1
2022-09-15T10:50:19.651Z,1.19
2022-09-15T10:51:20.615Z,1.4
2022-09-15T10:52:21.668Z,1.29
2022-09-15T10:53:22.637Z,0.84
2022-09-15T10:54:23.609Z,1.03
2022-09-15T10:55:36.962Z,1.07
2022-09-15T10:56:25.636Z,0.81
2022-09-15T10:58:27.621Z,0.93
2022-09-15T10:59:28.789Z,0.89
2022-09-15T11:00:29.612Z,0.81
2022-09-15T11:01:30.641Z,1.09
2022-09-15T11:02:31.851Z,0.22
2022-09-15T11:03:33.624Z,0.59
2022-09-15T11:04:34.622Z,0.75
2022-09-15T11:05:35.665Z,0.62
2022-09-15T11:06:36.667Z,0.76
2022-09-15T11:07:37.675Z,0.68
2022-09-15T11:08:38.658Z,1.59
2022-09-15T11:09:39.635Z,1.02
2022-09-15T11:10:40.636Z,1.2
2022-09-15T11:11:41.692Z,0.85
2022-09-15T11:12:42.641Z,1
2022-09-15T11:13:43.644Z,1.07
2022-09-15T11:14:44.749Z,1.58
2022-09-15T11:15:45.665Z,1.09
2022-09-15T11:16:46.689Z,1.44
2022-09-15T11:17:47.637Z,0.98
2022-09-15T11:18:48.644Z,0.56
2022-09-15T11:19:49.642Z,0.5
2022-09-15T11:20:50.658Z,0.89
2022-09-15T11:21:51.662Z,0.84
2022-09-15T11:22:52.682Z,0.64
2022-09-15T11:23:53.653Z,0.99
2022-09-15T11:24:54.665Z,0.57
2022-09-15T11:25:55.652Z,0.81
2022-09-15T11:26:56.756Z,1.02
2022-09-15T11:27:58.651Z,0.99
2022-09-15T11:28:59.661Z,0.7
2022-09-15T11:30:00.729Z,1.38
2022-09-15T11:31:01.765Z,1.1
2022-09-15T11:33:04.679Z,1.16
2022-09-15T11:34:05.658Z,0.96
2022-09-15T11:35:06.759Z,1.22
2022-09-15T11:36:07.674Z,0.79
2022-09-15T11:37:08.670Z,0.64
2022-09-15T11:38:12.781Z,0.35
2022-09-15T11:39:10.670Z,0.58
2022-09-15T11:40:11.813Z,0.83
2022-09-15T11:41:13.704Z,1.05
2022-09-15T11:42:14.678Z,0.81
2022-09-15T11:43:15.775Z,2.01
2022-09-15T11:44:17.746Z,0.97
2022-09-15T11:45:18.710Z,0.92
2022-09-15T11:46:19.739Z,0.94
2022-09-15T11:47:20.717Z,1.02
2022-09-15T11:48:21.725Z,0.86
2022-09-15T11:49:22.696Z,0.79
2022-09-15T11:50:23.846Z,1.1
2022-09-15T11:51:25.719Z,1.16
2022-09-15T11:52:26.768Z,1.24
2022-09-15T11:53:27.722Z,1.82
2022-09-15T11:54:31.316Z,1.52
2022-09-15T11:55:29.764Z,0.64
2022-09-15T11:56:30.711Z,1.14
2022-09-15T11:57:31.704Z,0.88
2022-09-15T11:58:33.745Z,1
2022-09-15T11:59:34.715Z,0.49
2022-09-15T12:00:35.795Z,1.24
2022-09-15T12:01:36.781Z,0.9
2022-09-15T12:02:37.996Z,0.98
2022-09-15T12:03:39.790Z,0.28
2022-09-15T12:04:40.764Z,0.87
2022-09-15T12:05:41.750Z,0.61
2022-09-15T12:06:45.700Z,0.45
2022-09-15T12:07:43.765Z,0.97
2022-09-15T12:08:44.839Z,1.33
2022-09-15T12:09:46.788Z,1.35
2022-09-15T12:10:47.792Z,0.77
2022-09-15T12:11:48.719Z,1.21
2022-09-15T12:12:49.839Z,1.06
2022-09-15T12:13:51.778Z,1.21
2022-09-15T12:14:53.147Z,1.01
2022-09-15T12:15:54.789Z,1.8
2022-09-15T12:16:55.752Z,1.23
2022-09-15T12:17:56.813Z,1.84
2022-09-15T12:18:57.793Z,1.53
2022-09-15T12:19:58.792Z,1.05
2022-09-15T12:20:59.764Z,1.77
2022-09-15T12:22:00.730Z,0.63
2022-09-15T12:23:01.739Z,0.7
2022-09-15T12:24:02.963Z,1.38
2022-09-15T12:25:04.786Z,0.7
2022-09-15T12:26:05.757Z,1.16
2022-09-15T12:27:06.801Z,1.05
2022-09-15T12:28:07.791Z,0.65
2022-09-15T12:29:08.784Z,0.9
2022-09-15T12:30:09.826Z,0.94
2022-09-15T12:31:10.874Z,0.82
2022-09-15T12:32:11.762Z,1.52
2022-09-15T12:33:12.770Z,1.06
2022-09-15T12:34:13.775Z,1.17
2022-09-15T12:35:14.829Z,1.03
2022-09-15T12:36:15.759Z,0.87
2022-09-15T12:37:16.813Z,1.18
2022-09-15T12:38:17.760Z,1.56
2022-09-15T12:39:18.780Z,1.39
2022-09-15T12:40:19.907Z,0.94
2022-09-15T12:41:20.808Z,0.96
2022-09-15T12:42:21.778Z,0.5
2022-09-15T12:43:22.793Z,0.79
2022-09-15T12:44:23.817Z,0.57
2022-09-15T12:45:24.816Z,0.86
2022-09-15T12:46:25.935Z,0.63
2022-09-15T12:47:27.091Z,1.2
2022-09-15T12:48:28.784Z,1.05
2022-09-15T12:49:29.801Z,0.67
2022-09-15T12:50:30.812Z,0.66
2022-09-15T12:51:31.824Z,0.77
2022-09-15T12:52:32.845Z,1.29
2022-09-15T12:54:34.836Z,0.36
2022-09-15T12:55:35.802Z,0.93
2022-09-15T12:56:36.837Z,0.31
2022-09-15T12:57:37.833Z,0.38
2022-09-15T12:58:38.873Z,0.8
2022-09-15T12:59:39.840Z,0.74
2022-09-15T13:00:49.872Z,0.85
2022-09-15T13:01:41.922Z,0.82
2022-09-15T13:02:42.988Z,0.69
2022-09-15T13:03:44.867Z,1.14
2022-09-15T13:04:45.848Z,1.05
2022-09-15T13:05:46.840Z,1.09
2022-09-15T13:06:48.038Z,0.83
2022-09-15T13:07:49.857Z,1.29
2022-09-15T13:08:50.839Z,1.49
2022-09-15T13:09:51.843Z,1.42
2022-09-15T13:10:52.859Z,1.27
2022-09-15T13:11:53.830Z,1.26
2022-09-15T13:12:54.904Z,0.86
2022-09-15T13:13:55.844Z,1.27
2022-09-15T13:14:56.824Z,0.89
2022-09-15T13:15:58.049Z,1.22
2022-09-15T13:16:59.922Z,0.55
2022-09-15T13:18:00.892Z,0.92
2022-09-15T13:19:01.845Z,0.66
2022-09-15T13:20:03.075Z,0.9
2022-09-15T13:21:03.882Z,1.18
2022-09-15T13:22:05.109Z,0.66
2022-09-15T13:23:06.945Z,0.91
2022-09-15T13:24:08.864Z,0.94
2022-09-15T13:25:09.866Z,1.28
2022-09-15T13:26:10.900Z,0.47
2022-09-15T13:27:11.916Z,0.85
2022-09-15T13:28:12.932Z,1.06
2022-09-15T13:29:13.979Z,0.55
2022-09-15T13:30:15.906Z,0.84
2022-09-15T13:31:16.948Z,0.74
2022-09-15T13:32:17.946Z,1.1
2022-09-15T13:33:18.998Z,1
2022-09-15T13:35:21.203Z,1.35
2022-09-15T13:36:21.943Z,1.37
2022-09-15T13:38:29.258Z,1.23
2022-09-15T13:39:25.869Z,1.22
2022-09-15T13:40:26.979Z,1.44
2022-09-15T13:41:27.878Z,1.13
2022-09-15T13:42:28.926Z,1.36
2022-09-15T13:43:29.882Z,1.05
2022-09-15T13:44:30.887Z,1.36
2022-09-15T13:45:31.901Z,1.05
2022-09-15T13:46:32.983Z,0.57
2022-09-15T13:47:34.856Z,0.63
2022-09-15T13:48:35.917Z,0.71
2022-09-15T13:49:36.897Z,0.53
2022-09-15T13:50:37.912Z,1.26
2022-09-15T13:51:39.309Z,1.23
2022-09-15T13:52:40.968Z,0.77